Terminal Aerodrome Forecast
Issued by NWS Cleveland, OH

Home | Current Version | Previous Version | Graphics & Text | Print | Product List | Glossary Off
Versions: 1 2 3 4 5 6 7 8 9 10 11 12 13 14 15 16 17 18 19 20 21 22 23 24 25 26 27 28 29

000
FTUS41 KCLE 301122
TAFCLE
TAF
KCLE 301122Z 3012/3118 13005KT P6SM BKN100
      TEMPO 3012/3014 SHRA OVC035
     FM301500 03007KT P6SM SCT045 BKN080
     FM301800 01007KT P6SM VCTS BKN045CB
     FM302200 VRB03KT P6SM -TSRA BKN035CB
     FM310100 VRB03KT P6SM SCT250
     FM310900 VRB03KT 4SM BR OVC007
     FM311300 VRB03KT P6SM SCT035=

USA.gov is the U.S. government's official web portal to all federal, state and local government web resources and services.